IST,Max TemperatureF,Mean TemperatureF,Min TemperatureF,Max Dew PointF,MeanDew PointF,Min DewpointF,Max Humidity, Mean Humidity, Min Humidity, Max Sea Level PressureIn, Mean Sea Level PressureIn, Min Sea Level PressureIn, Max VisibilityMiles, Mean VisibilityMiles, Min VisibilityMiles, Max Wind SpeedMPH, Mean Wind SpeedMPH, Max Gust SpeedMPH,PrecipitationIn, CloudCover, Events, WindDirDegrees
2013-9-1,93,90,86,77,75,73,74,62,55,29.71,29.66,29.65,3,3,2,12,10,,0.00,2,,295
2013-9-2,95,86,78,75,74,73,83,65,53,29.74,29.69,29.62,3,3,2,14,9,22,0.00,3,,277
2013-9-3,95,86,78,75,73,72,83,65,49,29.74,29.66,29.59,2,2,2,15,8,,0.00,2,,263
2013-9-4,93,85,77,75,73,70,83,65,49,29.74,29.66,29.59,2,2,2,16,8,,0.00,2,,270
2013-9-5,93,85,77,75,70,68,78,61,46,29.68,29.63,29.56,3,2,2,14,8,,0.00,2,,266
2013-9-6,93,86,78,72,70,68,74,61,49,29.74,29.67,29.62,3,2,2,13,7,,0.00,1,,270
2013-9-7,95,86,78,73,70,68,70,58,41,29.80,29.73,29.68,2,2,2,12,6,,0.00,1,,280
2013-9-8,93,86,80,75,72,68,84,66,46,29.83,29.77,29.71,2,2,1,13,4,,0.00,3,,339
2013-9-9,93,86,80,75,73,70,84,69,46,29.86,29.80,29.74,1,1,1,61,7,,0.00,4,Rain,301
2013-9-10,95,86,77,75,72,68,94,63,41,29.80,29.74,29.65,3,2,1,12,3,,0.00,2,,326
2013-9-11,96,89,82,75,72,66,79,59,37,29.80,29.73,29.68,2,2,2,10,4,,0.00,2,,94
2013-9-12,95,86,78,77,75,70,94,68,46,29.83,29.79,29.74,2,2,1,12,5,,0.00,3,,93
2013-9-13,95,88,80,77,75,73,84,69,49,29.86,29.79,29.74,2,2,1,6,3,,0.00,3,,55
2013-9-14,96,88,80,81,76,70,100,68,44,29.80,29.72,29.62,2,1,0,10,2,,0.00,2,Fog,328
2013-9-15,96,88,80,79,74,66,89,64,39,29.71,29.63,29.53,2,1,1,13,2,25,0.00,1,,358
2013-9-16,93,85,77,75,72,64,89,65,51,29.71,29.64,29.56,2,2,1,12,6,,0.00,2,,31
2013-9-17,95,86,77,73,69,59,83,61,32,29.74,29.66,29.59,2,2,1,9,3,,0.00,,,315
2013-9-18,95,85,75,73,70,64,94,64,36,29.74,29.66,29.59,2,2,1,12,4,,0.00,1,,304
2013-9-19,95,86,77,75,72,68,94,66,41,29.71,29.65,29.56,2,2,1,8,3,,0.00,1,,337
2013-9-20,91,86,78,77,74,72,89,72,62,29.68,29.65,29.62,2,2,1,17,5,21,0.00,5,,76
2013-9-21,91,83,75,77,74,73,100,84,55,29.71,29.67,29.65,2,2,1,15,8,20,0.00,6,Rain-Thunderstorm,60
2013-9-22,91,83,75,77,76,73,94,77,55,29.68,29.63,29.56,2,2,1,13,6,,0.00,4,,82
2013-9-23,93,86,80,79,76,73,89,74,52,29.68,29.62,29.56,2,2,1,8,4,,0.00,3,,98
2013-9-24,95,88,80,79,76,73,89,73,52,29.71,29.64,29.59,2,2,1,12,6,,0.00,4,,105
2013-9-25,93,86,80,77,75,72,89,75,52,29.77,29.71,29.65,2,2,1,12,4,,0.00,5,Thunderstorm,94
2013-9-26,91,84,77,77,76,73,100,81,59,29.83,29.77,29.74,3,2,1,13,5,,0.00,5,,144
2013-9-27,93,86,78,77,76,75,89,80,56,29.80,29.74,29.68,2,2,1,10,3,,0.00,4,Rain,282
2013-9-28,95,86,77,77,75,73,94,74,49,29.80,29.72,29.65,2,2,1,9,3,,0.00,4,,293
2013-9-29,86,82,78,79,76,72,89,80,70,29.74,29.68,29.62,2,2,1,10,3,,0.00,6,,280
2013-9-30,86,80,75,77,75,73,94,84,66,29.77,29.71,29.65,2,2,1,10,7,17,0.00,6,Rain-Thunderstorm,99